sensor_id;sensor_type;location;lat;lon;timestamp;pressure;altitude;pressure_sealevel;temperature;humidity
55456;BME280;63021;52.836;6.376;2023-02-28T00:00:49;103331.06;;;3.45;68.33
55456;BME280;63021;52.836;6.376;2023-02-28T00:03:15;103336.09;;;3.53;68.58
55456;BME280;63021;52.836;6.376;2023-02-28T00:05:40;103330.94;;;3.50;68.41
55456;BME280;63021;52.836;6.376;2023-02-28T00:08:07;103332.59;;;3.54;68.89
55456;BME280;63021;52.836;6.376;2023-02-28T00:10:32;103330.81;;;3.55;68.49
55456;BME280;63021;52.836;6.376;2023-02-28T00:13:03;103339.59;;;3.55;68.86
55456;BME280;63021;52.836;6.376;2023-02-28T00:15:30;103329.91;;;3.56;68.74
55456;BME280;63021;52.836;6.376;2023-02-28T00:17:56;103329.91;;;3.56;67.80
55456;BME280;63021;52.836;6.376;2023-02-28T00:20:22;103325.53;;;3.55;68.69
55456;BME280;63021;52.836;6.376;2023-02-28T00:22:50;103323.78;;;3.55;68.00
55456;BME280;63021;52.836;6.376;2023-02-28T00:25:22;103327.22;;;3.57;68.13
55456;BME280;63021;52.836;6.376;2023-02-28T00:27:49;103325.47;;;3.58;69.21
55456;BME280;63021;52.836;6.376;2023-02-28T00:30:18;103328.97;;;3.58;68.18
55456;BME280;63021;52.836;6.376;2023-02-28T00:32:44;103329.91;;;3.56;68.30
55456;BME280;63021;52.836;6.376;2023-02-28T00:35:10;103329.91;;;3.56;68.14
55456;BME280;63021;52.836;6.376;2023-02-28T00:37:36;103318.47;;;3.57;68.41
55456;BME280;63021;52.836;6.376;2023-02-28T00:40:02;103322.03;;;3.54;68.73
55456;BME280;63021;52.836;6.376;2023-02-28T00:42:29;103315.00;;;3.56;68.28
55456;BME280;63021;52.836;6.376;2023-02-28T00:44:55;103301.97;;;3.50;68.03
55456;BME280;63021;52.836;6.376;2023-02-28T00:47:20;103320.94;;;3.63;68.53
55456;BME280;63021;52.836;6.376;2023-02-28T00:49:46;103317.44;;;3.62;67.79
55456;BME280;63021;52.836;6.376;2023-02-28T00:52:11;103313.94;;;3.62;67.87
55456;BME280;63021;52.836;6.376;2023-02-28T00:54:37;103302.47;;;3.64;68.89
55456;BME280;63021;52.836;6.376;2023-02-28T00:57:02;103299.88;;;3.63;68.43
55456;BME280;63021;52.836;6.376;2023-02-28T00:59:28;103300.75;;;3.62;68.04
55456;BME280;63021;52.836;6.376;2023-02-28T01:01:53;103297.13;;;3.66;67.89
55456;BME280;63021;52.836;6.376;2023-02-28T01:04:19;103299.72;;;3.68;68.37
55456;BME280;63021;52.836;6.376;2023-02-28T01:06:44;103296.34;;;3.64;68.33
55456;BME280;63021;52.836;6.376;2023-02-28T01:09:10;103306.75;;;3.69;68.33
55456;BME280;63021;52.836;6.376;2023-02-28T01:11:35;103307.63;;;3.68;68.00
55456;BME280;63021;52.836;6.376;2023-02-28T01:14:01;103313.78;;;3.68;68.93
55456;BME280;63021;52.836;6.376;2023-02-28T01:16:27;103310.31;;;3.66;67.96
55456;BME280;63021;52.836;6.376;2023-02-28T01:18:53;103314.59;;;3.70;68.75
55456;BME280;63021;52.836;6.376;2023-02-28T01:21:20;103314.63;;;3.69;68.23
55456;BME280;63021;52.836;6.376;2023-02-28T01:23:46;103308.47;;;3.70;68.66
55456;BME280;63021;52.836;6.376;2023-02-28T01:26:20;103309.28;;;3.72;68.39
55456;BME280;63021;52.836;6.376;2023-02-28T01:28:47;103297.00;;;3.72;68.90
55456;BME280;63021;52.836;6.376;2023-02-28T01:31:12;103286.66;;;3.64;68.51
55456;BME280;63021;52.836;6.376;2023-02-28T01:33:38;103290.81;;;3.73;68.95
55456;BME280;63021;52.836;6.376;2023-02-28T01:36:07;103292.59;;;3.73;68.41
55456;BME280;63021;52.836;6.376;2023-02-28T01:38:34;103284.75;;;3.70;68.57
55456;BME280;63021;52.836;6.376;2023-02-28T01:41:00;103284.69;;;3.73;69.30
55456;BME280;63021;52.836;6.376;2023-02-28T01:43:26;103290.81;;;3.73;68.62
55456;BME280;63021;52.836;6.376;2023-02-28T01:45:54;103289.94;;;3.73;69.04
55456;BME280;63021;52.836;6.376;2023-02-28T01:48:27;103292.63;;;3.71;68.65
55456;BME280;63021;52.836;6.376;2023-02-28T01:50:54;103290.88;;;3.70;69.28
55456;BME280;63021;52.836;6.376;2023-02-28T01:53:26;103293.47;;;3.72;68.88
55456;BME280;63021;52.836;6.376;2023-02-28T01:55:54;103294.41;;;3.69;69.47
55456;BME280;63021;52.836;6.376;2023-02-28T01:58:20;103300.53;;;3.71;69.08
55456;BME280;63021;52.836;6.376;2023-02-28T02:00:46;103296.16;;;3.70;69.45
55456;BME280;63021;52.836;6.376;2023-02-28T02:03:14;103295.25;;;3.71;69.92
55456;BME280;63021;52.836;6.376;2023-02-28T02:05:41;103292.66;;;3.70;69.46
55456;BME280;63021;52.836;6.376;2023-02-28T02:08:19;103293.47;;;3.72;69.63
55456;BME280;63021;52.836;6.376;2023-02-28T02:10:48;103284.75;;;3.70;69.44
55456;BME280;63021;52.836;6.376;2023-02-28T02:13:22;103291.72;;;3.72;69.48
55456;BME280;63021;52.836;6.376;2023-02-28T02:18:36;103287.34;;;3.71;69.70
55456;BME280;63021;52.836;6.376;2023-02-28T02:29:38;103283.81;;;3.72;69.96
55456;BME280;63021;52.836;6.376;2023-02-28T02:35:20;103290.81;;;3.73;70.46
55456;BME280;63021;52.836;6.376;2023-02-28T02:38:07;103282.94;;;3.72;70.40
55456;BME280;63021;52.836;6.376;2023-02-28T02:40:49;103295.22;;;3.73;70.02
55456;BME280;63021;52.836;6.376;2023-02-28T02:43:32;103284.69;;;3.73;70.14
55456;BME280;63021;52.836;6.376;2023-02-28T02:46:20;103277.75;;;3.69;70.95
55456;BME280;63021;52.836;6.376;2023-02-28T02:48:46;103272.59;;;3.66;70.48
55456;BME280;63021;52.836;6.376;2023-02-28T02:51:18;103284.75;;;3.70;70.09
55456;BME280;63021;52.836;6.376;2023-02-28T02:53:53;103288.25;;;3.70;70.69
55456;BME280;63021;52.836;6.376;2023-02-28T02:56:24;103288.28;;;3.69;71.49
55456;BME280;63021;52.836;6.376;2023-02-28T02:58:51;103275.25;;;3.64;71.00
55456;BME280;63021;52.836;6.376;2023-02-28T03:01:22;103286.56;;;3.68;71.60
55456;BME280;63021;52.836;6.376;2023-02-28T03:04:01;103284.94;;;3.62;70.82
55456;BME280;63021;52.836;6.376;2023-02-28T03:06:27;103279.69;;;3.62;71.43
55456;BME280;63021;52.836;6.376;2023-02-28T03:08:53;103284.06;;;3.63;71.68
55456;BME280;63021;52.836;6.376;2023-02-28T03:11:19;103291.09;;;3.62;71.20
55456;BME280;63021;52.836;6.376;2023-02-28T03:27:29;103273.78;;;3.54;72.46
55456;BME280;63021;52.836;6.376;2023-02-28T03:30:12;103275.63;;;3.50;71.85
55456;BME280;63021;52.836;6.376;2023-02-28T03:35:19;103278.22;;;3.52;72.63
55456;BME280;63021;52.836;6.376;2023-02-28T03:37:48;103275.63;;;3.50;72.02
55456;BME280;63021;52.836;6.376;2023-02-28T03:40:17;103285.31;;;3.50;72.64
55456;BME280;63021;52.836;6.376;2023-02-28T03:42:48;103280.03;;;3.50;72.83
55456;BME280;63021;52.836;6.376;2023-02-28T03:45:21;103281.81;;;3.47;73.20
55456;BME280;63021;52.836;6.376;2023-02-28T03:47:57;103282.75;;;3.46;73.25
55456;BME280;63021;52.836;6.376;2023-02-28T03:50:34;103288.06;;;3.45;72.97
55456;BME280;63021;52.836;6.376;2023-02-28T03:53:06;103288.09;;;3.43;72.64
55456;BME280;63021;52.836;6.376;2023-02-28T03:55:39;103284.63;;;3.41;72.87
55456;BME280;63021;52.836;6.376;2023-02-28T03:58:37;103285.47;;;3.42;72.45
55456;BME280;63021;52.836;6.376;2023-02-28T04:01:11;103287.31;;;3.40;73.55
55456;BME280;63021;52.836;6.376;2023-02-28T04:03:38;103291.75;;;3.38;72.96
55456;BME280;63021;52.836;6.376;2023-02-28T04:06:07;103286.50;;;3.38;73.38
55456;BME280;63021;52.836;6.376;2023-02-28T04:08:37;103288.28;;;3.36;73.63
55456;BME280;63021;52.836;6.376;2023-02-28T04:11:08;103276.19;;;3.28;73.22
55456;BME280;63021;52.836;6.376;2023-02-28T04:13:40;103270.19;;;3.23;72.85
55456;BME280;63021;52.836;6.376;2023-02-28T04:16:09;103293.63;;;3.33;73.25
55456;BME280;63021;52.836;6.376;2023-02-28T04:18:38;103286.69;;;3.30;73.77
55456;BME280;63021;52.836;6.376;2023-02-28T04:21:05;103277.22;;;3.23;73.10
55456;BME280;63021;52.836;6.376;2023-02-28T04:23:30;103288.56;;;3.25;73.69
55456;BME280;63021;52.836;6.376;2023-02-28T04:25:56;103291.16;;;3.26;73.85
55456;BME280;63021;52.836;6.376;2023-02-28T04:28:21;103290.31;;;3.24;73.57
55456;BME280;63021;52.836;6.376;2023-02-28T04:30:46;103295.59;;;3.24;73.78
55456;BME280;63021;52.836;6.376;2023-02-28T04:33:15;103293.09;;;3.20;73.86
55456;BME280;63021;52.836;6.376;2023-02-28T04:35:40;103291.47;;;3.14;73.83
55456;BME280;63021;52.836;6.376;2023-02-28T04:38:05;103293.19;;;3.15;74.04
55456;BME280;63021;52.836;6.376;2023-02-28T04:40:31;103296.78;;;3.12;73.27
55456;BME280;63021;52.836;6.376;2023-02-28T04:42:56;103302.06;;;3.11;73.90
55456;BME280;63021;52.836;6.376;2023-02-28T04:45:22;103308.28;;;3.08;73.56
55456;BME280;63021;52.836;6.376;2023-02-28T04:47:47;103296.16;;;3.01;74.09
55456;BME280;63021;52.836;6.376;2023-02-28T04:50:12;103299.63;;;3.03;73.42
55456;BME280;63021;52.836;6.376;2023-02-28T04:52:38;103302.22;;;3.05;73.46
55456;BME280;63021;52.836;6.376;2023-02-28T04:55:03;103299.72;;;2.99;73.96
55456;BME280;63021;52.836;6.376;2023-02-28T04:57:29;103307.63;;;2.99;73.95
55456;BME280;63021;52.836;6.376;2023-02-28T04:59:55;103304.19;;;2.97;73.90
55456;BME280;63021;52.836;6.376;2023-02-28T05:02:20;103286.81;;;2.89;73.86
55456;BME280;63021;52.836;6.376;2023-02-28T05:04:46;103305.09;;;2.94;73.56
55456;BME280;63021;52.836;6.376;2023-02-28T05:07:11;103302.50;;;2.92;73.67
55456;BME280;63021;52.836;6.376;2023-02-28T05:09:37;103302.56;;;2.91;73.70
55456;BME280;63021;52.836;6.376;2023-02-28T05:12:02;103296.47;;;2.87;73.58
55456;BME280;63021;52.836;6.376;2023-02-28T05:14:28;103300.00;;;2.88;73.75
55456;BME280;63021;52.836;6.376;2023-02-28T05:16:53;103299.19;;;2.84;74.20
55456;BME280;63021;52.836;6.376;2023-02-28T05:19:19;103302.75;;;2.83;73.72
55456;BME280;63021;52.836;6.376;2023-02-28T05:21:51;103308.88;;;2.84;73.59
55456;BME280;63021;52.836;6.376;2023-02-28T05:24:17;103308.00;;;2.83;74.01
55456;BME280;63021;52.836;6.376;2023-02-28T05:26:50;103298.56;;;2.74;73.68
55456;BME280;63021;52.836;6.376;2023-02-28T05:29:16;103301.09;;;2.79;74.14
55456;BME280;63021;52.836;6.376;2023-02-28T05:31:42;103297.59;;;2.77;74.79
55456;BME280;63021;52.836;6.376;2023-02-28T05:34:08;103308.06;;;2.80;74.61
55456;BME280;63021;52.836;6.376;2023-02-28T05:36:36;103305.50;;;2.77;74.71
55456;BME280;63021;52.836;6.376;2023-02-28T05:39:02;103313.47;;;2.74;74.06
55456;BME280;63021;52.836;6.376;2023-02-28T05:41:28;103294.44;;;2.63;74.28
55456;BME280;63021;52.836;6.376;2023-02-28T05:43:54;103309.97;;;2.73;74.78
55456;BME280;63021;52.836;6.376;2023-02-28T05:46:19;103310.84;;;2.74;74.10
55456;BME280;63021;52.836;6.376;2023-02-28T05:48:46;103300.34;;;2.72;74.85
55456;BME280;63021;52.836;6.376;2023-02-28T05:51:12;103305.63;;;2.72;73.90
55456;BME280;63021;52.836;6.376;2023-02-28T05:53:37;103310.09;;;2.69;74.01
55456;BME280;63021;52.836;6.376;2023-02-28T05:56:04;103310.09;;;2.69;73.84
55456;BME280;63021;52.836;6.376;2023-02-28T05:58:29;103300.56;;;2.63;74.35
55456;BME280;63021;52.836;6.376;2023-02-28T06:01:00;103318.91;;;2.66;74.70
55456;BME280;63021;52.836;6.376;2023-02-28T06:03:26;103322.44;;;2.65;73.87
55456;BME280;63021;52.836;6.376;2023-02-28T06:05:52;103326.84;;;2.65;73.90
55456;BME280;63021;52.836;6.376;2023-02-28T06:08:18;103323.34;;;2.63;74.82
55456;BME280;63021;52.836;6.376;2023-02-28T06:10:43;103317.25;;;2.62;74.67
55456;BME280;63021;52.836;6.376;2023-02-28T06:13:10;103325.16;;;2.60;74.03
55456;BME280;63021;52.836;6.376;2023-02-28T06:15:37;103323.44;;;2.59;74.73
55456;BME280;63021;52.836;6.376;2023-02-28T06:18:02;103322.59;;;2.59;74.12
55456;BME280;63021;52.836;6.376;2023-02-28T06:20:28;103307.72;;;2.56;74.45
55456;BME280;63021;52.836;6.376;2023-02-28T06:22:56;103310.41;;;2.55;74.82
55456;BME280;63021;52.836;6.376;2023-02-28T06:25:24;103315.63;;;2.56;74.28
55456;BME280;63021;52.836;6.376;2023-02-28T06:27:49;103327.88;;;2.57;73.84
55456;BME280;63021;52.836;6.376;2023-02-28T06:30:15;103319.13;;;2.55;74.49
55456;BME280;63021;52.836;6.376;2023-02-28T06:32:40;103319.97;;;2.57;74.66
55456;BME280;63021;52.836;6.376;2023-02-28T06:35:06;103322.66;;;2.56;74.54
55456;BME280;63021;52.836;6.376;2023-02-28T06:37:32;103327.03;;;2.55;74.76
55456;BME280;63021;52.836;6.376;2023-02-28T06:39:57;103334.91;;;2.55;75.12
55456;BME280;63021;52.836;6.376;2023-02-28T06:42:24;103327.03;;;2.55;74.85
55456;BME280;63021;52.836;6.376;2023-02-28T06:44:54;103326.16;;;2.55;74.94
55456;BME280;63021;52.836;6.376;2023-02-28T06:47:20;103328.84;;;2.53;75.10
55456;BME280;63021;52.836;6.376;2023-02-28T06:49:46;103341.94;;;2.55;74.27
55456;BME280;63021;52.836;6.376;2023-02-28T06:52:11;103324.59;;;2.46;74.78
55456;BME280;63021;52.836;6.376;2023-02-28T06:54:38;103343.72;;;2.54;74.48
55456;BME280;63021;52.836;6.376;2023-02-28T06:57:03;103337.66;;;2.51;74.34
55456;BME280;63021;52.836;6.376;2023-02-28T06:59:29;103341.97;;;2.53;74.29
55456;BME280;63021;52.836;6.376;2023-02-28T07:01:54;103341.97;;;2.53;74.68
55456;BME280;63021;52.836;6.376;2023-02-28T07:04:20;103341.09;;;2.53;74.38
55456;BME280;63021;52.836;6.376;2023-02-28T07:06:46;103343.75;;;2.51;74.46
55456;BME280;63021;52.836;6.376;2023-02-28T07:09:11;103345.53;;;2.51;74.74
55456;BME280;63021;52.836;6.376;2023-02-28T07:11:37;103352.50;;;2.53;75.58
55456;BME280;63021;52.836;6.376;2023-02-28T07:14:02;103342.13;;;2.47;75.10
55456;BME280;63021;52.836;6.376;2023-02-28T07:16:27;103357.72;;;2.55;75.30
55456;BME280;63021;52.836;6.376;2023-02-28T07:18:53;103360.34;;;2.55;75.14
55456;BME280;63021;52.836;6.376;2023-02-28T07:21:19;103370.06;;;2.51;74.66
55456;BME280;63021;52.836;6.376;2023-02-28T07:23:44;103367.34;;;2.56;74.69
55456;BME280;63021;52.836;6.376;2023-02-28T07:26:15;103364.69;;;2.57;75.09
55456;BME280;63021;52.836;6.376;2023-02-28T07:28:43;103352.50;;;2.53;75.10
55456;BME280;63021;52.836;6.376;2023-02-28T07:31:09;103366.41;;;2.58;74.74
55456;BME280;63021;52.836;6.376;2023-02-28T07:33:35;103370.81;;;2.58;74.72
55456;BME280;63021;52.836;6.376;2023-02-28T07:36:03;103378.59;;;2.63;74.52
55456;BME280;63021;52.836;6.376;2023-02-28T07:38:29;103380.34;;;2.64;75.28
55456;BME280;63021;52.836;6.376;2023-02-28T07:40:54;103380.41;;;2.60;75.24
55456;BME280;63021;52.836;6.376;2023-02-28T07:43:20;103383.78;;;2.66;75.24
55456;BME280;63021;52.836;6.376;2023-02-28T07:45:45;103370.72;;;2.61;75.34
55456;BME280;63021;52.836;6.376;2023-02-28T07:48:10;103369.75;;;2.67;74.38
55456;BME280;63021;52.836;6.376;2023-02-28T07:50:36;103373.25;;;2.66;74.72
55456;BME280;63021;52.836;6.376;2023-02-28T07:53:01;103367.09;;;2.67;75.27
55456;BME280;63021;52.836;6.376;2023-02-28T07:55:27;103372.28;;;2.70;74.72
55456;BME280;63021;52.836;6.376;2023-02-28T07:57:52;103374.88;;;2.71;74.82
55456;BME280;63021;52.836;6.376;2023-02-28T08:00:18;103373.19;;;2.70;74.75
55456;BME280;63021;52.836;6.376;2023-02-28T08:02:43;103358.44;;;2.63;74.93
55456;BME280;63021;52.836;6.376;2023-02-28T08:05:09;103372.22;;;2.73;75.57
55456;BME280;63021;52.836;6.376;2023-02-28T08:07:35;103375.75;;;2.73;74.79
55456;BME280;63021;52.836;6.376;2023-02-28T08:10:00;103367.81;;;2.75;74.77
55456;BME280;63021;52.836;6.376;2023-02-28T08:12:26;103374.78;;;2.77;75.19
55456;BME280;63021;52.836;6.376;2023-02-28T08:14:52;103370.41;;;2.76;74.48
55456;BME280;63021;52.836;6.376;2023-02-28T08:17:17;103377.34;;;2.81;75.24
55456;BME280;63021;52.836;6.376;2023-02-28T08:19:45;103381.63;;;2.85;75.63
55456;BME280;63021;52.836;6.376;2023-02-28T08:22:11;103381.59;;;2.86;74.71
55456;BME280;63021;52.836;6.376;2023-02-28T08:24:36;103381.53;;;2.89;74.75
55456;BME280;63021;52.836;6.376;2023-02-28T08:27:02;103389.31;;;2.94;75.15
55456;BME280;63021;52.836;6.376;2023-02-28T08:29:27;103378.69;;;2.99;74.52
55456;BME280;63021;52.836;6.376;2023-02-28T08:31:52;103375.16;;;3.00;75.02
55456;BME280;63021;52.836;6.376;2023-02-28T08:34:18;103375.00;;;3.06;75.26
55456;BME280;63021;52.836;6.376;2023-02-28T08:36:43;103378.28;;;3.16;75.50
55456;BME280;63021;52.836;6.376;2023-02-28T08:39:10;103381.53;;;3.27;74.62
55456;BME280;63021;52.836;6.376;2023-02-28T08:41:35;103386.59;;;3.35;74.22
55456;BME280;63021;52.836;6.376;2023-02-28T08:44:01;103385.53;;;3.42;74.03
55456;BME280;63021;52.836;6.376;2023-02-28T08:46:27;103389.75;;;3.51;74.07
55456;BME280;63021;52.836;6.376;2023-02-28T08:48:56;103396.47;;;3.62;74.72
55456;BME280;63021;52.836;6.376;2023-02-28T08:51:25;103399.75;;;3.72;74.16
55456;BME280;63021;52.836;6.376;2023-02-28T08:53:55;103403.03;;;3.80;74.12
55456;BME280;63021;52.836;6.376;2023-02-28T08:56:22;103395.78;;;3.89;74.51
55456;BME280;63021;52.836;6.376;2023-02-28T08:58:49;103400.84;;;3.98;73.75
55456;BME280;63021;52.836;6.376;2023-02-28T09:01:20;103394.50;;;4.04;74.57
55456;BME280;63021;52.836;6.376;2023-02-28T09:03:48;103397.03;;;4.08;74.31
55456;BME280;63021;52.836;6.376;2023-02-28T09:06:15;103399.53;;;4.13;74.23
55456;BME280;63021;52.836;6.376;2023-02-28T09:08:41;103388.91;;;4.16;74.15
55456;BME280;63021;52.836;6.376;2023-02-28T09:11:07;103380.91;;;4.19;73.30
55456;BME280;63021;52.836;6.376;2023-02-28T09:13:33;103389.47;;;4.27;74.15
55456;BME280;63021;52.836;6.376;2023-02-28T09:16:01;103383.94;;;4.37;73.82
55456;BME280;63021;52.836;6.376;2023-02-28T09:18:28;103398.66;;;4.44;73.19
55456;BME280;63021;52.836;6.376;2023-02-28T09:20:54;103396.03;;;4.45;73.36
55456;BME280;63021;52.836;6.376;2023-02-28T09:23:19;103390.69;;;4.47;73.27
55456;BME280;63021;52.836;6.376;2023-02-28T09:25:47;103388.78;;;4.52;72.53
55456;BME280;63021;52.836;6.376;2023-02-28T09:28:13;103397.16;;;4.66;72.18
55456;BME280;63021;52.836;6.376;2023-02-28T09:30:41;103389.88;;;4.75;72.99
55456;BME280;63021;52.836;6.376;2023-02-28T09:33:06;103391.41;;;4.82;73.20
55456;BME280;63021;52.836;6.376;2023-02-28T09:35:32;103398.13;;;4.92;72.77
55456;BME280;63021;52.836;6.376;2023-02-28T09:37:57;103384.78;;;4.97;72.39
55456;BME280;63021;52.836;6.376;2023-02-28T09:40:24;103370.69;;;4.98;72.87
55456;BME280;63021;52.836;6.376;2023-02-28T09:42:53;103393.03;;;5.16;72.80
55456;BME280;63021;52.836;6.376;2023-02-28T09:45:28;103396.19;;;5.27;72.59
55456;BME280;63021;52.836;6.376;2023-02-28T09:48:10;103389.78;;;5.34;72.34
55456;BME280;63021;52.836;6.376;2023-02-28T09:50:46;103380.94;;;5.35;72.24
55456;BME280;63021;52.836;6.376;2023-02-28T09:53:27;103393.91;;;5.43;71.84
55456;BME280;63021;52.836;6.376;2023-02-28T09:55:58;103395.66;;;5.43;71.94
55456;BME280;63021;52.836;6.376;2023-02-28T10:01:12;103389.56;;;5.41;71.18
55456;BME280;63021;52.836;6.376;2023-02-28T10:03:47;103391.22;;;5.45;71.85
55456;BME280;63021;52.836;6.376;2023-02-28T10:06:19;103398.00;;;5.52;71.35
55456;BME280;63021;52.836;6.376;2023-02-28T10:09:07;103397.00;;;5.56;70.91
55456;BME280;63021;52.836;6.376;2023-02-28T10:11:37;103389.94;;;5.57;71.33
55456;BME280;63021;52.836;6.376;2023-02-28T10:16:38;103397.75;;;5.60;70.45
55456;BME280;63021;52.836;6.376;2023-02-28T10:19:28;103397.81;;;5.58;69.94
55456;BME280;63021;52.836;6.376;2023-02-28T10:22:04;103399.66;;;5.54;69.58
55456;BME280;63021;52.836;6.376;2023-02-28T10:24:40;103398.81;;;5.54;69.86
55456;BME280;63021;52.836;6.376;2023-02-28T10:27:15;103400.44;;;5.58;69.11
55456;BME280;63021;52.836;6.376;2023-02-28T10:29:44;103394.31;;;5.58;69.45
55456;BME280;63021;52.836;6.376;2023-02-28T10:32:14;103403.88;;;5.62;69.73
55456;BME280;63021;52.836;6.376;2023-02-28T10:34:40;103384.69;;;5.55;69.14
55456;BME280;63021;52.836;6.376;2023-02-28T10:37:06;103389.75;;;5.61;69.01
55456;BME280;63021;52.836;6.376;2023-02-28T10:39:36;103402.75;;;5.69;68.36
55456;BME280;63021;52.836;6.376;2023-02-28T10:42:03;103393.94;;;5.68;68.74
55456;BME280;63021;52.836;6.376;2023-02-28T10:44:29;103385.16;;;5.68;68.33
55456;BME280;63021;52.836;6.376;2023-02-28T10:46:55;103393.72;;;5.75;68.49
55456;BME280;63021;52.836;6.376;2023-02-28T10:49:26;103391.91;;;5.77;68.29
55456;BME280;63021;52.836;6.376;2023-02-28T10:52:00;103382.22;;;5.76;68.64
55456;BME280;63021;52.836;6.376;2023-02-28T10:54:33;103388.34;;;5.78;68.51
55456;BME280;63021;52.836;6.376;2023-02-28T10:57:20;103391.72;;;5.81;68.81
55456;BME280;63021;52.836;6.376;2023-02-28T10:59:50;103381.22;;;5.80;68.26
55456;BME280;63021;52.836;6.376;2023-02-28T11:02:49;103380.31;;;5.81;67.36
55456;BME280;63021;52.836;6.376;2023-02-28T11:05:34;103374.19;;;5.79;67.84
55456;BME280;63021;52.836;6.376;2023-02-28T11:08:16;103380.13;;;5.85;67.46
55456;BME280;63021;52.836;6.376;2023-02-28T11:10:54;103371.28;;;5.86;66.64
55456;BME280;63021;52.836;6.376;2023-02-28T11:13:24;103375.50;;;5.92;66.74
55456;BME280;63021;52.836;6.376;2023-02-28T11:15:56;103370.97;;;5.96;66.40
55456;BME280;63021;52.836;6.376;2023-02-28T11:20:57;103369.59;;;6.11;66.30
55456;BME280;63021;52.836;6.376;2023-02-28T11:23:25;103367.44;;;6.20;66.86
55456;BME280;63021;52.836;6.376;2023-02-28T11:25:54;103355.72;;;6.28;66.95
55456;BME280;63021;52.836;6.376;2023-02-28T11:28:30;103362.31;;;6.41;66.14
55456;BME280;63021;52.836;6.376;2023-02-28T11:31:01;103354.00;;;6.50;66.46
55456;BME280;63021;52.836;6.376;2023-02-28T11:33:30;103348.59;;;6.53;65.98
55456;BME280;63021;52.836;6.376;2023-02-28T11:36:11;103347.69;;;6.54;65.27
55456;BME280;63021;52.836;6.376;2023-02-28T11:38:37;103350.06;;;6.61;66.13
55456;BME280;63021;52.836;6.376;2023-02-28T11:44:00;103347.53;;;6.81;65.74
55456;BME280;63021;52.836;6.376;2023-02-28T11:46:31;103348.94;;;6.90;64.09
55456;BME280;63021;52.836;6.376;2023-02-28T11:49:20;103346.06;;;6.96;63.65
55456;BME280;63021;52.836;6.376;2023-02-28T12:03:15;103348.50;;;7.23;61.11
55456;BME280;63021;52.836;6.376;2023-02-28T12:08:42;103349.09;;;7.29;61.55
55456;BME280;63021;52.836;6.376;2023-02-28T12:19:39;103326.72;;;7.37;60.16
55456;BME280;63021;52.836;6.376;2023-02-28T12:22:32;103328.50;;;7.36;59.32
55456;BME280;63021;52.836;6.376;2023-02-28T12:27:29;103320.44;;;7.39;58.80
55456;BME280;63021;52.836;6.376;2023-02-28T12:30:05;103328.78;;;7.51;58.61
55456;BME280;63021;52.836;6.376;2023-02-28T12:32:36;103325.09;;;7.55;58.62
55456;BME280;63021;52.836;6.376;2023-02-28T12:37:42;103313.66;;;7.53;57.46
55456;BME280;63021;52.836;6.376;2023-02-28T12:40:15;103313.66;;;7.53;57.38
55456;BME280;63021;52.836;6.376;2023-02-28T12:42:46;103307.25;;;7.58;58.21
55456;BME280;63021;52.836;6.376;2023-02-28T12:45:31;103304.97;;;7.70;58.08
55456;BME280;63021;52.836;6.376;2023-02-28T12:48:04;103301.88;;;7.80;57.88
55456;BME280;63021;52.836;6.376;2023-02-28T12:50:32;103295.38;;;7.88;57.50
55456;BME280;63021;52.836;6.376;2023-02-28T12:53:25;103297.50;;;7.98;56.84
55456;BME280;63021;52.836;6.376;2023-02-28T12:56:07;103290.28;;;8.02;56.86
55456;BME280;63021;52.836;6.376;2023-02-28T12:58:49;103282.94;;;8.09;56.78
55456;BME280;63021;52.836;6.376;2023-02-28T13:07:05;103286.13;;;8.15;56.58
55456;BME280;63021;52.836;6.376;2023-02-28T13:09:37;103265.91;;;8.13;55.68
55456;BME280;63021;52.836;6.376;2023-02-28T13:12:13;103272.78;;;8.17;55.44
55456;BME280;63021;52.836;6.376;2023-02-28T13:14:39;103260.75;;;8.10;55.62
55456;BME280;63021;52.836;6.376;2023-02-28T13:19:42;103264.41;;;8.07;55.04
55456;BME280;63021;52.836;6.376;2023-02-28T13:24:59;103253.78;;;8.07;55.02
55456;BME280;63021;52.836;6.376;2023-02-28T13:27:52;103251.09;;;8.09;55.28
55456;BME280;63021;52.836;6.376;2023-02-28T13:39:03;103253.06;;;8.23;55.30
55456;BME280;63021;52.836;6.376;2023-02-28T13:41:48;103252.44;;;8.18;54.60
55456;BME280;63021;52.836;6.376;2023-02-28T13:44:20;103250.78;;;8.15;54.12
55456;BME280;63021;52.836;6.376;2023-02-28T13:51:55;103246.19;;;8.00;53.58
55456;BME280;63021;52.836;6.376;2023-02-28T14:05:22;103249.06;;;7.55;53.23
55456;BME280;63021;52.836;6.376;2023-02-28T14:07:56;103243.44;;;7.42;51.42
55456;BME280;63021;52.836;6.376;2023-02-28T14:10:36;103240.28;;;7.34;51.07
55456;BME280;63021;52.836;6.376;2023-02-28T14:21:21;103242.41;;;7.05;50.74
55456;BME280;63021;52.836;6.376;2023-02-28T14:26:37;103248.19;;;6.93;51.62
55456;BME280;63021;52.836;6.376;2023-02-28T14:38:26;103234.81;;;6.75;52.84
55456;BME280;63021;52.836;6.376;2023-02-28T14:40:55;103233.91;;;6.75;52.30
55456;BME280;63021;52.836;6.376;2023-02-28T14:43:24;103251.47;;;6.78;52.63
55456;BME280;63021;52.836;6.376;2023-02-28T14:46:01;103244.44;;;6.76;52.28
55456;BME280;63021;52.836;6.376;2023-02-28T14:48:27;103250.75;;;6.74;52.81
55456;BME280;63021;52.836;6.376;2023-02-28T14:50:55;103247.34;;;6.70;52.35
55456;BME280;63021;52.836;6.376;2023-02-28T14:53:23;103244.84;;;6.67;52.64
55456;BME280;63021;52.836;6.376;2023-02-28T14:55:50;103243.16;;;6.65;53.05
55456;BME280;63021;52.836;6.376;2023-02-28T14:58:30;103239.59;;;6.66;53.34
55456;BME280;63021;52.836;6.376;2023-02-28T15:00:58;103245.81;;;6.65;53.51
55456;BME280;63021;52.836;6.376;2023-02-28T15:05:59;103235.16;;;6.66;53.48
55456;BME280;63021;52.836;6.376;2023-02-28T15:08:26;103232.50;;;6.66;53.81
55456;BME280;63021;52.836;6.376;2023-02-28T15:13:23;103232.44;;;6.68;53.80
55456;BME280;63021;52.836;6.376;2023-02-28T15:15:57;103228.75;;;6.72;54.27
55456;BME280;63021;52.836;6.376;2023-02-28T15:21:03;103231.34;;;6.73;54.03
55456;BME280;63021;52.836;6.376;2023-02-28T15:23:31;103219.84;;;6.74;53.68